Warrensburg, Missouri
Current Conditions -  °F | °C
As of 2:55 AM on Wednesday 22 Oct 2014 (Local Time) from KRCM Reporting Station
Haze Haze  
Wind Chill: 50°   Ceiling: Unl
Heat Index: 50°   Visibility: 5mi
Dew Point: 43°   Wind: 3mph
Humidity: 76%   Direction: 100°E
Pressure: 30.17"   Gusts: NA
Location:  38.77°N, 93.74°W
Report Text: KRCM 220755Z AUTO 10003KT 5SM HZ CLR 10/06 A3017 RMK AO2
Loading
Personal Weather Stations






























Interactive Weather Map
Tropical Storm Tracking
New forecast layout! Learn more

10-Day Weather Forecast

Advertisements
Track Severe Weather on mobile